sensor_id;sensor_type;location;lat;lon;timestamp;pressure;altitude;pressure_sealevel;temperature;humidity
14689;BME280;7432;48.728;9.154;2022-12-20T00:01:29;97128.09;;;3.20;98.27
14689;BME280;7432;48.728;9.154;2022-12-20T00:03:58;97130.44;;;3.23;99.02
14689;BME280;7432;48.728;9.154;2022-12-20T00:06:26;97122.81;;;3.23;98.54
14689;BME280;7432;48.728;9.154;2022-12-20T00:08:54;97122.09;;;3.21;98.16
14689;BME280;7432;48.728;9.154;2022-12-20T00:11:21;97116.81;;;3.24;97.53
14689;BME280;7432;48.728;9.154;2022-12-20T00:13:50;97107.47;;;3.25;97.18
14689;BME280;7432;48.728;9.154;2022-12-20T00:16:18;97107.13;;;3.17;97.41
14689;BME280;7432;48.728;9.154;2022-12-20T00:18:49;97106.72;;;3.10;97.19
14689;BME280;7432;48.728;9.154;2022-12-20T00:21:16;97093.47;;;3.05;97.70
14689;BME280;7432;48.728;9.154;2022-12-20T00:23:42;97087.06;;;2.99;97.35
14689;BME280;7432;48.728;9.154;2022-12-20T00:26:10;97083.25;;;2.92;97.77
14689;BME280;7432;48.728;9.154;2022-12-20T00:28:37;97076.84;;;2.87;97.25
14689;BME280;7432;48.728;9.154;2022-12-20T00:31:07;97088.97;;;2.83;97.62
14689;BME280;7432;48.728;9.154;2022-12-20T00:33:35;97094.72;;;2.73;98.13
14689;BME280;7432;48.728;9.154;2022-12-20T00:36:03;97093.47;;;2.66;98.59
14689;BME280;7432;48.728;9.154;2022-12-20T00:38:30;97090.22;;;2.64;98.16
14689;BME280;7432;48.728;9.154;2022-12-20T00:41:01;97088.16;;;2.56;99.10
14689;BME280;7432;48.728;9.154;2022-12-20T00:43:28;97081.75;;;2.51;97.94
14689;BME280;7432;48.728;9.154;2022-12-20T00:45:54;97072.84;;;2.44;98.81
14689;BME280;7432;48.728;9.154;2022-12-20T00:48:22;97075.44;;;2.56;98.29
14689;BME280;7432;48.728;9.154;2022-12-20T00:50:49;97076.88;;;2.60;98.30
14689;BME280;7432;48.728;9.154;2022-12-20T00:53:15;97080.44;;;2.58;98.53
14689;BME280;7432;48.728;9.154;2022-12-20T00:55:42;97074.34;;;2.60;99.01
14689;BME280;7432;48.728;9.154;2022-12-20T00:58:08;97070.63;;;2.52;97.95
14689;BME280;7432;48.728;9.154;2022-12-20T01:00:35;97072.81;;;2.58;98.18
14689;BME280;7432;48.728;9.154;2022-12-20T01:03:01;97072.81;;;2.58;97.04
14689;BME280;7432;48.728;9.154;2022-12-20T01:05:29;97071.19;;;2.57;98.15
14689;BME280;7432;48.728;9.154;2022-12-20T01:07:56;97095.03;;;2.54;97.74
14689;BME280;7432;48.728;9.154;2022-12-20T01:10:22;97090.06;;;2.53;97.94
14689;BME280;7432;48.728;9.154;2022-12-20T01:12:48;97089.97;;;2.54;97.34
14689;BME280;7432;48.728;9.154;2022-12-20T01:15:16;97102.47;;;2.57;97.86
14689;BME280;7432;48.728;9.154;2022-12-20T01:17:42;97102.41;;;2.59;98.50
14689;BME280;7432;48.728;9.154;2022-12-20T01:20:09;97094.84;;;2.57;98.38
14689;BME280;7432;48.728;9.154;2022-12-20T01:22:37;97103.22;;;2.59;98.33
14689;BME280;7432;48.728;9.154;2022-12-20T01:25:04;97088.97;;;2.57;97.54
14689;BME280;7432;48.728;9.154;2022-12-20T01:27:31;97089.06;;;2.55;98.53
14689;BME280;7432;48.728;9.154;2022-12-20T01:29:57;97096.88;;;2.52;98.18
14689;BME280;7432;48.728;9.154;2022-12-20T01:32:24;97090.06;;;2.53;97.90
14689;BME280;7432;48.728;9.154;2022-12-20T01:34:52;97089.31;;;2.65;98.60
14689;BME280;7432;48.728;9.154;2022-12-20T01:37:19;97086.84;;;2.63;97.07
14689;BME280;7432;48.728;9.154;2022-12-20T01:39:46;97080.94;;;2.63;97.79
14689;BME280;7432;48.728;9.154;2022-12-20T01:42:13;97086.53;;;2.55;96.66
14689;BME280;7432;48.728;9.154;2022-12-20T01:44:57;97083.00;;;2.44;97.21
14689;BME280;7432;48.728;9.154;2022-12-20T01:47:25;97083.88;;;2.30;97.91
14689;BME280;7432;48.728;9.154;2022-12-20T01:49:54;97076.19;;;2.17;97.70
14689;BME280;7432;48.728;9.154;2022-12-20T01:52:26;97083.34;;;2.25;98.83
14689;BME280;7432;48.728;9.154;2022-12-20T01:55:01;97091.31;;;2.33;97.73
14689;BME280;7432;48.728;9.154;2022-12-20T01:57:33;97072.69;;;2.32;97.75
14689;BME280;7432;48.728;9.154;2022-12-20T02:00:00;97060.56;;;2.37;98.24
14689;BME280;7432;48.728;9.154;2022-12-20T02:02:27;97074.91;;;2.24;98.74
14689;BME280;7432;48.728;9.154;2022-12-20T02:04:53;97065.03;;;2.20;99.00
14689;BME280;7432;48.728;9.154;2022-12-20T02:07:23;97061.13;;;2.28;98.96
14689;BME280;7432;48.728;9.154;2022-12-20T02:09:51;97054.69;;;2.23;98.63
14689;BME280;7432;48.728;9.154;2022-12-20T02:12:21;97058.03;;;2.23;99.44
14689;BME280;7432;48.728;9.154;2022-12-20T02:15:01;97064.19;;;2.33;98.92
14689;BME280;7432;48.728;9.154;2022-12-20T02:17:38;97057.19;;;2.37;98.94
14689;BME280;7432;48.728;9.154;2022-12-20T02:20:23;97041.00;;;2.38;98.88
14689;BME280;7432;48.728;9.154;2022-12-20T02:23:13;97050.47;;;2.36;98.80
14689;BME280;7432;48.728;9.154;2022-12-20T02:25:51;97038.47;;;2.38;99.29
14689;BME280;7432;48.728;9.154;2022-12-20T02:28:38;97037.56;;;2.39;98.11
14689;BME280;7432;48.728;9.154;2022-12-20T02:31:10;97037.47;;;2.40;98.88
14689;BME280;7432;48.728;9.154;2022-12-20T02:33:38;97030.84;;;2.38;98.62
14689;BME280;7432;48.728;9.154;2022-12-20T02:36:07;97042.75;;;2.37;98.08
14689;BME280;7432;48.728;9.154;2022-12-20T02:38:35;97039.28;;;2.38;98.12
14689;BME280;7432;48.728;9.154;2022-12-20T02:41:05;97037.75;;;2.36;98.11
14689;BME280;7432;48.728;9.154;2022-12-20T02:43:35;97045.31;;;2.37;98.40
14689;BME280;7432;48.728;9.154;2022-12-20T02:46:23;97034.13;;;2.40;98.48
14689;BME280;7432;48.728;9.154;2022-12-20T02:48:50;97013.75;;;2.27;99.40
14689;BME280;7432;48.728;9.154;2022-12-20T02:51:19;97037.09;;;2.47;98.70
14689;BME280;7432;48.728;9.154;2022-12-20T02:53:47;97034.47;;;2.48;98.61
14689;BME280;7432;48.728;9.154;2022-12-20T02:56:19;97014.44;;;2.56;99.56
14689;BME280;7432;48.728;9.154;2022-12-20T02:58:49;97017.00;;;2.56;99.16
14689;BME280;7432;48.728;9.154;2022-12-20T03:01:20;97025.22;;;2.60;98.61
14689;BME280;7432;48.728;9.154;2022-12-20T03:03:50;97020.25;;;2.58;98.03
14689;BME280;7432;48.728;9.154;2022-12-20T03:06:18;97012.00;;;2.55;99.42
14689;BME280;7432;48.728;9.154;2022-12-20T03:08:45;97000.03;;;2.57;98.28
14689;BME280;7432;48.728;9.154;2022-12-20T03:11:12;97008.53;;;2.56;99.26
14689;BME280;7432;48.728;9.154;2022-12-20T03:13:39;97002.66;;;2.55;99.40
14689;BME280;7432;48.728;9.154;2022-12-20T03:16:06;97019.44;;;2.58;99.13
14689;BME280;7432;48.728;9.154;2022-12-20T03:18:33;97009.97;;;2.60;99.28
14689;BME280;7432;48.728;9.154;2022-12-20T03:21:01;97000.34;;;2.65;98.72
14689;BME280;7432;48.728;9.154;2022-12-20T03:23:27;96996.03;;;2.65;99.61
14689;BME280;7432;48.728;9.154;2022-12-20T03:25:54;96989.16;;;2.67;99.54
14689;BME280;7432;48.728;9.154;2022-12-20T03:28:20;96980.41;;;2.71;99.98
14689;BME280;7432;48.728;9.154;2022-12-20T03:30:47;96991.09;;;2.76;100.00
14689;BME280;7432;48.728;9.154;2022-12-20T03:33:14;96981.84;;;2.88;99.62
14689;BME280;7432;48.728;9.154;2022-12-20T03:35:41;96986.22;;;2.86;97.88
14689;BME280;7432;48.728;9.154;2022-12-20T03:38:08;96985.91;;;2.78;98.88
14689;BME280;7432;48.728;9.154;2022-12-20T03:40:35;96989.06;;;2.81;98.21
14689;BME280;7432;48.728;9.154;2022-12-20T03:43:01;96998.31;;;2.70;98.66
14689;BME280;7432;48.728;9.154;2022-12-20T03:45:28;96998.69;;;2.64;98.77
14689;BME280;7432;48.728;9.154;2022-12-20T03:47:54;96987.91;;;2.60;98.96
14689;BME280;7432;48.728;9.154;2022-12-20T03:50:21;96991.38;;;2.59;98.68
14689;BME280;7432;48.728;9.154;2022-12-20T03:52:48;96992.78;;;2.63;98.59
14689;BME280;7432;48.728;9.154;2022-12-20T03:55:15;96990.97;;;2.65;98.57
14689;BME280;7432;48.728;9.154;2022-12-20T03:57:42;96983.06;;;2.70;99.51
14689;BME280;7432;48.728;9.154;2022-12-20T04:00:09;96987.13;;;2.72;98.83
14689;BME280;7432;48.728;9.154;2022-12-20T04:02:36;96983.25;;;2.79;99.79
14689;BME280;7432;48.728;9.154;2022-12-20T04:05:03;96987.25;;;2.83;98.46
14689;BME280;7432;48.728;9.154;2022-12-20T04:07:30;96975.53;;;2.81;98.48
14689;BME280;7432;48.728;9.154;2022-12-20T04:09:56;96971.06;;;2.84;98.82
14689;BME280;7432;48.728;9.154;2022-12-20T04:12:24;96976.75;;;2.88;99.16
14689;BME280;7432;48.728;9.154;2022-12-20T04:14:50;96970.84;;;2.87;98.32
14689;BME280;7432;48.728;9.154;2022-12-20T04:17:17;96957.63;;;2.82;98.95
14689;BME280;7432;48.728;9.154;2022-12-20T04:19:43;96951.44;;;2.86;98.80
14689;BME280;7432;48.728;9.154;2022-12-20T04:22:09;96961.50;;;2.88;97.90
14689;BME280;7432;48.728;9.154;2022-12-20T04:24:36;96963.03;;;2.90;98.71
14689;BME280;7432;48.728;9.154;2022-12-20T04:27:02;96963.97;;;2.89;98.72
14689;BME280;7432;48.728;9.154;2022-12-20T04:29:30;96963.97;;;2.89;98.19
14689;BME280;7432;48.728;9.154;2022-12-20T04:31:56;96972.19;;;2.93;98.80
14689;BME280;7432;48.728;9.154;2022-12-20T04:34:23;96969.75;;;2.91;97.88
14689;BME280;7432;48.728;9.154;2022-12-20T04:36:49;96967.91;;;2.93;98.30
14689;BME280;7432;48.728;9.154;2022-12-20T04:39:16;96963.72;;;2.92;98.90
14689;BME280;7432;48.728;9.154;2022-12-20T04:41:42;96949.09;;;2.96;98.32
14689;BME280;7432;48.728;9.154;2022-12-20T04:44:08;96951.44;;;2.99;99.60
14689;BME280;7432;48.728;9.154;2022-12-20T04:46:36;96945.75;;;3.08;99.17
14689;BME280;7432;48.728;9.154;2022-12-20T04:49:03;96951.13;;;3.16;98.96
14689;BME280;7432;48.728;9.154;2022-12-20T04:51:29;96933.31;;;3.16;98.49
14689;BME280;7432;48.728;9.154;2022-12-20T04:53:55;96938.78;;;3.23;98.13
14689;BME280;7432;48.728;9.154;2022-12-20T04:56:24;96941.75;;;3.17;98.20
14689;BME280;7432;48.728;9.154;2022-12-20T04:58:52;96937.38;;;3.19;99.00
14689;BME280;7432;48.728;9.154;2022-12-20T05:01:20;96941.53;;;3.20;98.59
14689;BME280;7432;48.728;9.154;2022-12-20T05:03:48;96941.31;;;3.23;98.93
14689;BME280;7432;48.728;9.154;2022-12-20T05:06:15;96934.22;;;3.28;98.69
14689;BME280;7432;48.728;9.154;2022-12-20T05:08:42;96931.69;;;3.28;98.30
14689;BME280;7432;48.728;9.154;2022-12-20T05:11:08;96919.56;;;3.19;97.80
14689;BME280;7432;48.728;9.154;2022-12-20T05:13:35;96933.50;;;3.26;98.01
14689;BME280;7432;48.728;9.154;2022-12-20T05:16:01;96925.16;;;3.24;97.78
14689;BME280;7432;48.728;9.154;2022-12-20T05:18:28;96930.75;;;3.29;97.46
14689;BME280;7432;48.728;9.154;2022-12-20T05:20:56;96929.63;;;3.33;98.64
14689;BME280;7432;48.728;9.154;2022-12-20T05:23:41;96922.78;;;3.33;98.03
14689;BME280;7432;48.728;9.154;2022-12-20T05:26:28;96907.00;;;3.28;98.30
14689;BME280;7432;48.728;9.154;2022-12-20T05:28:55;96913.63;;;3.43;98.79
14689;BME280;7432;48.728;9.154;2022-12-20T05:31:21;96914.16;;;3.59;98.25
14689;BME280;7432;48.728;9.154;2022-12-20T05:33:47;96914.06;;;3.61;98.72
14689;BME280;7432;48.728;9.154;2022-12-20T05:36:15;96918.63;;;3.69;98.15
14689;BME280;7432;48.728;9.154;2022-12-20T05:38:42;96911.91;;;3.68;98.29
14689;BME280;7432;48.728;9.154;2022-12-20T05:41:08;96916.66;;;3.72;97.82
14689;BME280;7432;48.728;9.154;2022-12-20T05:43:35;96901.28;;;3.74;97.87
14689;BME280;7432;48.728;9.154;2022-12-20T05:46:01;96909.75;;;3.74;98.05
14689;BME280;7432;48.728;9.154;2022-12-20T05:48:27;96896.34;;;3.83;97.92
14689;BME280;7432;48.728;9.154;2022-12-20T05:50:54;96900.78;;;3.92;97.74
14689;BME280;7432;48.728;9.154;2022-12-20T05:53:22;96887.84;;;3.95;97.49
14689;BME280;7432;48.728;9.154;2022-12-20T05:55:50;96889.69;;;3.93;97.05
14689;BME280;7432;48.728;9.154;2022-12-20T05:58:18;96894.78;;;3.93;97.54
14689;BME280;7432;48.728;9.154;2022-12-20T06:00:45;96891.53;;;3.91;97.20
14689;BME280;7432;48.728;9.154;2022-12-20T06:03:13;96886.97;;;3.84;97.57
14689;BME280;7432;48.728;9.154;2022-12-20T06:05:40;96877.00;;;3.81;98.38
14689;BME280;7432;48.728;9.154;2022-12-20T06:08:08;96879.06;;;3.76;97.68
14689;BME280;7432;48.728;9.154;2022-12-20T06:10:36;96884.50;;;3.71;97.91
14689;BME280;7432;48.728;9.154;2022-12-20T06:13:04;96890.72;;;3.67;98.47
14689;BME280;7432;48.728;9.154;2022-12-20T06:15:30;96890.84;;;3.66;98.62
14689;BME280;7432;48.728;9.154;2022-12-20T06:17:57;96901.84;;;3.66;98.37
14689;BME280;7432;48.728;9.154;2022-12-20T06:20:23;96896.41;;;3.71;98.40
14689;BME280;7432;48.728;9.154;2022-12-20T06:22:50;96885.53;;;3.69;98.48
14689;BME280;7432;48.728;9.154;2022-12-20T06:25:16;96894.47;;;3.74;98.67
14689;BME280;7432;48.728;9.154;2022-12-20T06:27:44;96889.38;;;3.74;98.80
14689;BME280;7432;48.728;9.154;2022-12-20T06:30:11;96899.22;;;3.79;98.52
14689;BME280;7432;48.728;9.154;2022-12-20T06:32:37;96893.91;;;3.82;98.60
14689;BME280;7432;48.728;9.154;2022-12-20T06:35:05;96904.47;;;3.88;98.33
14689;BME280;7432;48.728;9.154;2022-12-20T06:37:31;96896.75;;;3.90;98.40
14689;BME280;7432;48.728;9.154;2022-12-20T06:39:58;96891.91;;;3.98;97.90
14689;BME280;7432;48.728;9.154;2022-12-20T06:42:24;96906.28;;;3.99;98.05
14689;BME280;7432;48.728;9.154;2022-12-20T06:44:52;96915.09;;;4.06;97.63
14689;BME280;7432;48.728;9.154;2022-12-20T06:47:19;96910.00;;;4.06;97.68
14689;BME280;7432;48.728;9.154;2022-12-20T06:49:45;96911.50;;;4.08;97.51
14689;BME280;7432;48.728;9.154;2022-12-20T06:52:11;96905.50;;;4.09;97.47
14689;BME280;7432;48.728;9.154;2022-12-20T06:54:38;96905.66;;;4.19;97.35
14689;BME280;7432;48.728;9.154;2022-12-20T06:57:04;96898.59;;;4.23;96.69
14689;BME280;7432;48.728;9.154;2022-12-20T06:59:31;96898.16;;;4.29;96.62
14689;BME280;7432;48.728;9.154;2022-12-20T07:01:58;96904.88;;;4.30;95.96
14689;BME280;7432;48.728;9.154;2022-12-20T07:04:25;96902.78;;;4.35;95.96
14689;BME280;7432;48.728;9.154;2022-12-20T07:06:51;96898.50;;;4.35;95.95
14689;BME280;7432;48.728;9.154;2022-12-20T07:09:18;96898.19;;;4.40;95.70
14689;BME280;7432;48.728;9.154;2022-12-20T07:11:44;96895.38;;;4.43;95.40
14689;BME280;7432;48.728;9.154;2022-12-20T07:14:11;96908.84;;;4.45;95.42
14689;BME280;7432;48.728;9.154;2022-12-20T07:16:37;96898.44;;;4.48;95.07
14689;BME280;7432;48.728;9.154;2022-12-20T07:19:09;96891.47;;;4.50;95.05
14689;BME280;7432;48.728;9.154;2022-12-20T07:21:36;96897.50;;;4.49;94.87
14689;BME280;7432;48.728;9.154;2022-12-20T07:24:02;96889.53;;;4.53;94.60
14689;BME280;7432;48.728;9.154;2022-12-20T07:26:30;96894.50;;;4.55;95.04
14689;BME280;7432;48.728;9.154;2022-12-20T07:28:56;96905.41;;;4.57;94.93
14689;BME280;7432;48.728;9.154;2022-12-20T07:31:22;96906.34;;;4.56;94.68
14689;BME280;7432;48.728;9.154;2022-12-20T07:33:49;96896.84;;;4.58;94.61
14689;BME280;7432;48.728;9.154;2022-12-20T07:36:17;96901.81;;;4.59;94.70
14689;BME280;7432;48.728;9.154;2022-12-20T07:38:43;96897.66;;;4.58;94.84
14689;BME280;7432;48.728;9.154;2022-12-20T07:41:11;96902.41;;;4.63;95.27
14689;BME280;7432;48.728;9.154;2022-12-20T07:43:38;96894.53;;;4.66;94.83
14689;BME280;7432;48.728;9.154;2022-12-20T07:46:06;96906.47;;;4.65;94.83
14689;BME280;7432;48.728;9.154;2022-12-20T07:48:33;96893.13;;;4.73;94.80
14689;BME280;7432;48.728;9.154;2022-12-20T07:51:03;96887.81;;;4.87;94.49
14689;BME280;7432;48.728;9.154;2022-12-20T07:53:34;96890.59;;;4.95;94.23
14689;BME280;7432;48.728;9.154;2022-12-20T07:56:05;96887.72;;;5.00;94.06
14689;BME280;7432;48.728;9.154;2022-12-20T07:58:34;96890.97;;;5.02;94.10
14689;BME280;7432;48.728;9.154;2022-12-20T08:01:01;96896.53;;;5.07;93.64
14689;BME280;7432;48.728;9.154;2022-12-20T08:03:31;96892.09;;;5.09;93.88
14689;BME280;7432;48.728;9.154;2022-12-20T08:06:02;96901.84;;;5.15;93.15
14689;BME280;7432;48.728;9.154;2022-12-20T08:08:35;96904.53;;;5.24;92.45
14689;BME280;7432;48.728;9.154;2022-12-20T08:11:04;96900.34;;;5.34;92.19
14689;BME280;7432;48.728;9.154;2022-12-20T08:13:32;96892.28;;;5.50;91.95
14689;BME280;7432;48.728;9.154;2022-12-20T08:15:59;96895.50;;;5.63;91.10
14689;BME280;7432;48.728;9.154;2022-12-20T08:18:25;96890.06;;;5.68;90.10
14689;BME280;7432;48.728;9.154;2022-12-20T08:20:52;96898.63;;;5.78;89.79
14689;BME280;7432;48.728;9.154;2022-12-20T08:23:18;96895.50;;;5.85;88.80
14689;BME280;7432;48.728;9.154;2022-12-20T08:25:46;96890.72;;;5.92;87.22
14689;BME280;7432;48.728;9.154;2022-12-20T08:28:12;96892.47;;;5.91;87.83
14689;BME280;7432;48.728;9.154;2022-12-20T08:30:39;96885.16;;;5.87;87.85
14689;BME280;7432;48.728;9.154;2022-12-20T08:33:05;96878.03;;;5.90;87.97
14689;BME280;7432;48.728;9.154;2022-12-20T08:35:32;96875.81;;;5.97;87.09
14689;BME280;7432;48.728;9.154;2022-12-20T08:37:59;96867.34;;;5.96;86.69
14689;BME280;7432;48.728;9.154;2022-12-20T08:40:25;96860.00;;;6.03;87.24
14689;BME280;7432;48.728;9.154;2022-12-20T08:42:53;96866.47;;;6.07;87.14
14689;BME280;7432;48.728;9.154;2022-12-20T08:45:19;96864.69;;;5.98;87.20
14689;BME280;7432;48.728;9.154;2022-12-20T08:47:46;96864.31;;;6.03;87.24
14689;BME280;7432;48.728;9.154;2022-12-20T08:50:12;96862.63;;;6.13;86.93
14689;BME280;7432;48.728;9.154;2022-12-20T08:52:39;96865.25;;;6.22;86.89
14689;BME280;7432;48.728;9.154;2022-12-20T08:55:06;96857.78;;;6.30;86.11
14689;BME280;7432;48.728;9.154;2022-12-20T08:57:32;96862.66;;;6.33;85.89
14689;BME280;7432;48.728;9.154;2022-12-20T09:00:00;96855.25;;;6.40;85.55
14689;BME280;7432;48.728;9.154;2022-12-20T09:02:27;96858.16;;;6.46;85.26
14689;BME280;7432;48.728;9.154;2022-12-20T09:04:54;96862.19;;;6.49;84.77
14689;BME280;7432;48.728;9.154;2022-12-20T09:07:20;96855.41;;;6.38;85.21
14689;BME280;7432;48.728;9.154;2022-12-20T09:09:47;96860.81;;;6.45;85.27
14689;BME280;7432;48.728;9.154;2022-12-20T09:12:13;96865.94;;;6.45;84.80
14689;BME280;7432;48.728;9.154;2022-12-20T09:14:40;96860.81;;;6.45;85.92
14689;BME280;7432;48.728;9.154;2022-12-20T09:17:08;96855.59;;;6.46;86.17
14689;BME280;7432;48.728;9.154;2022-12-20T09:19:34;96848.97;;;6.44;85.44
14689;BME280;7432;48.728;9.154;2022-12-20T09:22:00;96851.97;;;6.49;85.43
14689;BME280;7432;48.728;9.154;2022-12-20T09:24:28;96849.41;;;6.49;85.79
14689;BME280;7432;48.728;9.154;2022-12-20T09:26:54;96845.91;;;6.50;86.05
14689;BME280;7432;48.728;9.154;2022-12-20T09:29:21;96852.72;;;6.61;85.72
14689;BME280;7432;48.728;9.154;2022-12-20T09:31:48;96860.63;;;6.57;85.97
14689;BME280;7432;48.728;9.154;2022-12-20T09:34:16;96864.78;;;6.58;85.69
14689;BME280;7432;48.728;9.154;2022-12-20T09:36:42;96850.56;;;6.66;84.83
14689;BME280;7432;48.728;9.154;2022-12-20T09:39:09;96834.91;;;6.59;85.23
14689;BME280;7432;48.728;9.154;2022-12-20T09:41:37;96847.94;;;6.56;85.14
14689;BME280;7432;48.728;9.154;2022-12-20T09:44:10;96842.34;;;6.62;84.82
14689;BME280;7432;48.728;9.154;2022-12-20T09:46:39;96844.97;;;6.81;84.91
14689;BME280;7432;48.728;9.154;2022-12-20T09:49:10;96835.72;;;6.80;84.48
14689;BME280;7432;48.728;9.154;2022-12-20T09:51:53;96829.69;;;6.91;82.75
14689;BME280;7432;48.728;9.154;2022-12-20T09:54:30;96824.84;;;6.97;83.42
14689;BME280;7432;48.728;9.154;2022-12-20T09:57:03;96820.03;;;7.04;83.78
14689;BME280;7432;48.728;9.154;2022-12-20T09:59:33;96817.34;;;7.15;84.09
14689;BME280;7432;48.728;9.154;2022-12-20T10:02:00;96822.94;;;7.39;82.10
14689;BME280;7432;48.728;9.154;2022-12-20T10:04:29;96812.81;;;7.57;82.21
14689;BME280;7432;48.728;9.154;2022-12-20T10:07:10;96813.78;;;7.65;80.81
14689;BME280;7432;48.728;9.154;2022-12-20T10:09:56;96819.88;;;7.64;80.27
14689;BME280;7432;48.728;9.154;2022-12-20T10:12:32;96811.63;;;7.61;80.07
14689;BME280;7432;48.728;9.154;2022-12-20T10:15:17;96806.34;;;7.62;80.48
14689;BME280;7432;48.728;9.154;2022-12-20T10:17:52;96815.69;;;7.63;81.30
14689;BME280;7432;48.728;9.154;2022-12-20T10:20:29;96809.34;;;7.58;81.33
14689;BME280;7432;48.728;9.154;2022-12-20T10:23:06;96814.06;;;7.53;80.40
14689;BME280;7432;48.728;9.154;2022-12-20T10:25:34;96809.34;;;7.58;79.90
14689;BME280;7432;48.728;9.154;2022-12-20T10:28:03;96793.53;;;7.43;80.34
14689;BME280;7432;48.728;9.154;2022-12-20T10:30:35;96797.72;;;7.44;80.72
14689;BME280;7432;48.728;9.154;2022-12-20T10:33:02;96789.22;;;7.44;80.71
14689;BME280;7432;48.728;9.154;2022-12-20T10:35:29;96776.00;;;7.39;80.76
14689;BME280;7432;48.728;9.154;2022-12-20T10:38:03;96788.69;;;7.40;80.61
14689;BME280;7432;48.728;9.154;2022-12-20T10:40:32;96783.00;;;7.27;80.84
14689;BME280;7432;48.728;9.154;2022-12-20T10:42:59;96785.97;;;7.23;82.09
14689;BME280;7432;48.728;9.154;2022-12-20T10:45:32;96779.75;;;7.15;82.30
14689;BME280;7432;48.728;9.154;2022-12-20T10:48:01;96784.44;;;7.10;82.45
14689;BME280;7432;48.728;9.154;2022-12-20T10:50:28;96788.19;;;6.97;83.89
14689;BME280;7432;48.728;9.154;2022-12-20T10:53:16;96777.81;;;6.98;83.79
14689;BME280;7432;48.728;9.154;2022-12-20T10:55:44;96775.53;;;6.95;84.07
14689;BME280;7432;48.728;9.154;2022-12-20T10:58:13;96767.28;;;6.92;84.87
14689;BME280;7432;48.728;9.154;2022-12-20T11:00:40;96766.34;;;6.93;84.11
14689;BME280;7432;48.728;9.154;2022-12-20T11:03:14;96762.31;;;6.90;84.47
14689;BME280;7432;48.728;9.154;2022-12-20T11:05:52;96762.31;;;6.90;84.53
14689;BME280;7432;48.728;9.154;2022-12-20T11:08:21;96757.59;;;6.95;85.11
14689;BME280;7432;48.728;9.154;2022-12-20T11:10:51;96757.34;;;6.98;85.50
14689;BME280;7432;48.728;9.154;2022-12-20T11:13:35;96754.69;;;7.09;84.28
14689;BME280;7432;48.728;9.154;2022-12-20T11:16:02;96748.34;;;7.13;84.52
14689;BME280;7432;48.728;9.154;2022-12-20T11:18:37;96746.84;;;7.11;84.52
14689;BME280;7432;48.728;9.154;2022-12-20T11:21:16;96740.00;;;7.21;84.16
14689;BME280;7432;48.728;9.154;2022-12-20T11:23:56;96731.66;;;7.29;83.62
14689;BME280;7432;48.728;9.154;2022-12-20T11:26:34;96731.25;;;7.33;82.97
14689;BME280;7432;48.728;9.154;2022-12-20T11:29:16;96728.16;;;7.39;82.23
14689;BME280;7432;48.728;9.154;2022-12-20T11:31:53;96719.53;;;7.40;81.91
14689;BME280;7432;48.728;9.154;2022-12-20T11:34:32;96724.78;;;7.48;81.49
14689;BME280;7432;48.728;9.154;2022-12-20T11:37:18;96722.34;;;7.56;82.85
14689;BME280;7432;48.728;9.154;2022-12-20T11:40:11;96719.22;;;7.62;81.10
14689;BME280;7432;48.728;9.154;2022-12-20T11:42:53;96712.88;;;7.76;81.18
14689;BME280;7432;48.728;9.154;2022-12-20T11:45:30;96699.94;;;7.78;81.32
14689;BME280;7432;48.728;9.154;2022-12-20T11:48:16;96702.19;;;7.90;79.65
14689;BME280;7432;48.728;9.154;2022-12-20T11:50:58;96701.25;;;7.91;80.43
14689;BME280;7432;48.728;9.154;2022-12-20T11:53:31;96702.72;;;7.94;80.27
14689;BME280;7432;48.728;9.154;2022-12-20T11:56:05;96695.69;;;7.96;80.29
14689;BME280;7432;48.728;9.154;2022-12-20T11:58:45;96696.94;;;7.92;78.99
14689;BME280;7432;48.728;9.154;2022-12-20T12:01:13;96699.34;;;7.93;79.32
14689;BME280;7432;48.728;9.154;2022-12-20T12:03:56;96695.59;;;7.88;79.66
14689;BME280;7432;48.728;9.154;2022-12-20T12:06:28;96703.00;;;7.91;79.83
14689;BME280;7432;48.728;9.154;2022-12-20T12:09:07;96700.88;;;7.86;80.16
14689;BME280;7432;48.728;9.154;2022-12-20T12:11:42;96693.56;;;7.82;79.98
14689;BME280;7432;48.728;9.154;2022-12-20T12:14:17;96685.25;;;7.70;80.82
14689;BME280;7432;48.728;9.154;2022-12-20T12:16:50;96687.53;;;7.63;80.77
14689;BME280;7432;48.728;9.154;2022-12-20T12:19:19;96692.28;;;7.58;80.79
14689;BME280;7432;48.728;9.154;2022-12-20T12:21:48;96692.81;;;7.52;81.62
14689;BME280;7432;48.728;9.154;2022-12-20T12:24:20;96683.78;;;7.48;81.11
14689;BME280;7432;48.728;9.154;2022-12-20T12:26:51;96682.97;;;7.48;81.81
14689;BME280;7432;48.728;9.154;2022-12-20T12:29:19;96678.66;;;7.48;81.41
14689;BME280;7432;48.728;9.154;2022-12-20T12:31:49;96671.66;;;7.50;82.69
14689;BME280;7432;48.728;9.154;2022-12-20T12:34:29;96669.75;;;7.52;82.21
14689;BME280;7432;48.728;9.154;2022-12-20T12:37:25;96661.66;;;7.57;81.53
14689;BME280;7432;48.728;9.154;2022-12-20T12:43:12;96668.78;;;7.63;82.45
14689;BME280;7432;48.728;9.154;2022-12-20T12:45:45;96677.03;;;7.66;81.83
14689;BME280;7432;48.728;9.154;2022-12-20T12:48:15;96667.97;;;7.72;81.90
14689;BME280;7432;48.728;9.154;2022-12-20T12:50:45;96663.50;;;7.84;81.11
14689;BME280;7432;48.728;9.154;2022-12-20T12:53:15;96649.59;;;7.86;80.94
14689;BME280;7432;48.728;9.154;2022-12-20T12:55:43;96634.72;;;7.90;80.58
14689;BME280;7432;48.728;9.154;2022-12-20T12:58:33;96625.81;;;7.94;80.37
14689;BME280;7432;48.728;9.154;2022-12-20T13:01:02;96625.09;;;8.01;80.30
14689;BME280;7432;48.728;9.154;2022-12-20T13:04:07;96637.66;;;8.04;79.95
14689;BME280;7432;48.728;9.154;2022-12-20T13:06:55;96628.31;;;8.13;80.55
14689;BME280;7432;48.728;9.154;2022-12-20T13:09:36;96613.63;;;8.05;80.54
14689;BME280;7432;48.728;9.154;2022-12-20T13:18:28;96627.06;;;8.17;78.78
14689;BME280;7432;48.728;9.154;2022-12-20T13:21:23;96624.50;;;8.17;79.45
14689;BME280;7432;48.728;9.154;2022-12-20T13:27:20;96614.03;;;8.01;79.18
14689;BME280;7432;48.728;9.154;2022-12-20T13:29:55;96626.72;;;8.02;79.66
14689;BME280;7432;48.728;9.154;2022-12-20T13:35:29;96628.53;;;7.92;80.28
14689;BME280;7432;48.728;9.154;2022-12-20T13:37:57;96623.53;;;7.91;80.63
14689;BME280;7432;48.728;9.154;2022-12-20T13:40:32;96615.88;;;7.81;79.67
14689;BME280;7432;48.728;9.154;2022-12-20T13:43:04;96630.97;;;7.84;80.53
14689;BME280;7432;48.728;9.154;2022-12-20T13:45:32;96622.88;;;7.79;80.68
14689;BME280;7432;48.728;9.154;2022-12-20T13:48:02;96621.41;;;7.76;80.37
14689;BME280;7432;48.728;9.154;2022-12-20T13:50:34;96611.16;;;7.76;80.33
14689;BME280;7432;48.728;9.154;2022-12-20T13:53:05;96597.53;;;7.76;80.43